createdAt,value
2018-12-16T00:00:18.735Z,1018.39
2018-12-16T00:01:18.722Z,1018.38
2018-12-16T00:02:18.763Z,1018.37
2018-12-16T00:03:18.701Z,1018.43
2018-12-16T00:04:18.688Z,1018.36
2018-12-16T00:05:18.681Z,1018.33
2018-12-16T00:06:18.671Z,1018.41
2018-12-16T00:07:18.656Z,1018.43
2018-12-16T00:08:18.645Z,1018.36
2018-12-16T00:09:18.637Z,1018.39
2018-12-16T00:10:18.625Z,1018.33
2018-12-16T00:11:18.613Z,1018.28
2018-12-16T00:12:18.604Z,1018.20
2018-12-16T00:13:18.588Z,1018.25
2018-12-16T00:14:18.579Z,1018.20
2018-12-16T00:15:18.568Z,1018.22
2018-12-16T00:16:18.565Z,1018.18
2018-12-16T00:17:18.551Z,1018.18
2018-12-16T00:18:18.533Z,1018.15
2018-12-16T00:19:18.530Z,1018.23
2018-12-16T00:20:18.514Z,1018.23
2018-12-16T00:21:18.564Z,1018.28
2018-12-16T00:22:18.491Z,1018.24
2018-12-16T00:23:18.484Z,1018.24
2018-12-16T00:24:18.477Z,1018.26
2018-12-16T00:25:18.469Z,1018.22
2018-12-16T00:26:18.451Z,1018.23
2018-12-16T00:27:18.438Z,1018.24
2018-12-16T00:28:18.425Z,1018.36
2018-12-16T00:29:18.419Z,1018.26
2018-12-16T00:30:18.402Z,1018.20
2018-12-16T00:31:18.389Z,1018.15
2018-12-16T00:32:18.433Z,1018.15
2018-12-16T00:33:18.370Z,1018.11
2018-12-16T00:34:18.364Z,1018.14
2018-12-16T00:35:18.350Z,1018.18
2018-12-16T00:36:18.335Z,1018.19
2018-12-16T00:37:18.325Z,1018.20
2018-12-16T00:38:18.315Z,1018.12
2018-12-16T00:39:18.302Z,1018.17
2018-12-16T00:40:18.294Z,1018.13
2018-12-16T00:41:18.280Z,1018.09
2018-12-16T00:42:18.270Z,1018.02
2018-12-16T00:43:18.257Z,1018.06
2018-12-16T00:44:18.255Z,1017.97
2018-12-16T00:45:18.235Z,1017.94
2018-12-16T00:46:18.224Z,1017.98
2018-12-16T00:47:18.213Z,1017.98
2018-12-16T00:48:18.202Z,1017.99
2018-12-16T00:49:18.191Z,1017.89
2018-12-16T00:50:18.180Z,1017.97
2018-12-16T00:51:18.178Z,1017.86
2018-12-16T00:52:18.158Z,1017.86
2018-12-16T00:53:18.148Z,1017.97
2018-12-16T00:54:18.137Z,1017.80
2018-12-16T00:55:18.125Z,1017.87
2018-12-16T00:56:18.114Z,1017.89
2018-12-16T00:57:18.101Z,1017.81
2018-12-16T00:58:18.090Z,1017.85
2018-12-16T00:59:18.088Z,1017.79
2018-12-16T01:00:18.068Z,1017.86
2018-12-16T01:01:18.067Z,1017.82
2018-12-16T01:02:18.050Z,1017.88
2018-12-16T01:03:18.041Z,1017.82
2018-12-16T01:04:18.035Z,1017.85
2018-12-16T01:05:18.013Z,1017.83
2018-12-16T01:06:18.006Z,1017.85
2018-12-16T01:07:17.991Z,1017.74
2018-12-16T01:08:17.980Z,1017.77
2018-12-16T01:09:17.970Z,1017.79
2018-12-16T01:10:17.959Z,1017.77
2018-12-16T01:11:17.947Z,1017.69
2018-12-16T01:12:17.951Z,1017.72
2018-12-16T01:13:17.927Z,1017.72
2018-12-16T01:14:17.912Z,1017.74
2018-12-16T01:15:17.904Z,1017.69
2018-12-16T01:16:17.893Z,1017.66
2018-12-16T01:17:17.880Z,1017.69
2018-12-16T01:18:17.870Z,1017.70
2018-12-16T01:19:17.863Z,1017.69
2018-12-16T01:20:17.850Z,1017.63
2018-12-16T01:21:17.838Z,1017.67
2018-12-16T01:22:17.827Z,1017.65
2018-12-16T01:23:17.811Z,1017.59
2018-12-16T01:24:18.403Z,1017.59
2018-12-16T01:25:17.788Z,1017.54
2018-12-16T01:26:17.779Z,1017.53
2018-12-16T01:27:17.768Z,1017.62
2018-12-16T01:28:17.758Z,1017.49
2018-12-16T01:29:17.750Z,1017.59
2018-12-16T01:30:17.739Z,1017.53
2018-12-16T01:31:17.722Z,1017.52
2018-12-16T01:32:17.711Z,1017.54
2018-12-16T01:33:17.699Z,1017.39
2018-12-16T01:34:17.690Z,1017.52
2018-12-16T01:35:17.677Z,1017.51
2018-12-16T01:36:17.666Z,1017.44
2018-12-16T01:37:17.655Z,1017.43
2018-12-16T01:38:17.644Z,1017.44
2018-12-16T01:39:17.631Z,1017.41
2018-12-16T01:40:17.626Z,1017.46
2018-12-16T01:41:17.616Z,1017.38
2018-12-16T01:42:17.598Z,1017.42
2018-12-16T01:43:17.591Z,1017.42
2018-12-16T01:44:17.585Z,1017.35
2018-12-16T01:45:17.566Z,1017.27
2018-12-16T01:46:17.557Z,1017.21
2018-12-16T01:47:17.543Z,1017.22
2018-12-16T01:48:17.532Z,1017.23
2018-12-16T01:49:17.523Z,1017.20
2018-12-16T01:50:17.509Z,1017.13
2018-12-16T01:51:17.501Z,1017.12
2018-12-16T01:52:17.494Z,1017.13
2018-12-16T01:53:17.482Z,1017.09
2018-12-16T01:54:17.479Z,1017.13
2018-12-16T01:55:17.455Z,1017.11
2018-12-16T01:56:17.450Z,1017.08
2018-12-16T01:57:17.436Z,1017.02
2018-12-16T01:58:17.423Z,1017.02
2018-12-16T01:59:17.410Z,1017.06
2018-12-16T02:00:17.405Z,1017.00
2018-12-16T02:01:17.386Z,1016.95
2018-12-16T02:02:17.460Z,1016.89
2018-12-16T02:03:17.365Z,1016.88
2018-12-16T02:04:17.355Z,1016.89
2018-12-16T02:05:17.347Z,1016.84
2018-12-16T02:06:17.331Z,1016.82
2018-12-16T02:07:17.321Z,1016.81
2018-12-16T02:08:17.313Z,1016.79
2018-12-16T02:09:17.303Z,1016.77
2018-12-16T02:10:17.287Z,1016.72
2018-12-16T02:11:17.273Z,1016.80
2018-12-16T02:12:17.263Z,1016.74
2018-12-16T02:13:17.251Z,1016.75
2018-12-16T02:14:17.238Z,1016.77
2018-12-16T02:15:17.235Z,1016.75
2018-12-16T02:16:17.219Z,1016.68
2018-12-16T02:17:17.206Z,1016.64
2018-12-16T02:18:17.205Z,1016.68
2018-12-16T02:19:17.208Z,1016.67
2018-12-16T02:20:17.201Z,1016.66
2018-12-16T02:21:17.206Z,1016.59
2018-12-16T02:22:17.151Z,1016.61
2018-12-16T02:23:17.151Z,1016.64
2018-12-16T02:24:17.154Z,1016.61
2018-12-16T02:25:17.160Z,1016.61
2018-12-16T02:26:17.158Z,1016.61
2018-12-16T02:27:17.096Z,1016.63
2018-12-16T02:28:17.084Z,1016.61
2018-12-16T02:29:17.076Z,1016.64
2018-12-16T02:30:17.067Z,1016.62
2018-12-16T02:31:17.054Z,1016.61
2018-12-16T02:32:17.044Z,1016.59
2018-12-16T02:33:17.031Z,1016.55
2018-12-16T02:34:17.018Z,1016.59
2018-12-16T02:35:17.007Z,1016.52
2018-12-16T02:36:16.998Z,1016.51
2018-12-16T02:37:16.994Z,1016.50
2018-12-16T02:38:16.980Z,1016.51
2018-12-16T02:39:16.963Z,1016.49
2018-12-16T02:40:16.953Z,1016.54
2018-12-16T02:41:16.943Z,1016.54
2018-12-16T02:42:16.933Z,1016.61
2018-12-16T02:43:16.924Z,1016.63
2018-12-16T02:44:16.914Z,1016.55
2018-12-16T02:45:17.013Z,1016.60
2018-12-16T02:46:16.884Z,1016.52
2018-12-16T02:47:16.872Z,1016.49
2018-12-16T02:48:16.866Z,1016.51
2018-12-16T02:49:16.853Z,1016.47
2018-12-16T02:50:16.842Z,1016.62
2018-12-16T02:51:16.831Z,1016.58
2018-12-16T02:52:16.827Z,1016.51
2018-12-16T02:53:16.811Z,1016.54
2018-12-16T02:54:16.795Z,1016.59
2018-12-16T02:55:16.871Z,1016.52
2018-12-16T02:56:16.775Z,1016.54
2018-12-16T02:57:16.762Z,1016.52
2018-12-16T02:58:16.757Z,1016.46
2018-12-16T02:59:16.740Z,1016.48
2018-12-16T03:00:16.729Z,1016.47
2018-12-16T03:01:16.717Z,1016.51
2018-12-16T03:02:16.704Z,1016.39
2018-12-16T03:03:16.702Z,1016.42
2018-12-16T03:04:16.691Z,1016.43
2018-12-16T03:05:16.678Z,1016.36
2018-12-16T03:06:16.659Z,1016.25
2018-12-16T03:07:16.651Z,1016.31
2018-12-16T03:08:16.637Z,1016.28
2018-12-16T03:09:16.629Z,1016.20
2018-12-16T03:10:16.620Z,1016.32
2018-12-16T03:11:16.605Z,1016.28
2018-12-16T03:12:16.594Z,1016.32
2018-12-16T03:13:16.582Z,1016.27
2018-12-16T03:14:16.583Z,1016.27
2018-12-16T03:15:16.562Z,1016.22
2018-12-16T03:16:16.549Z,1016.14
2018-12-16T03:17:16.539Z,1016.16
2018-12-16T03:18:16.528Z,1016.08
2018-12-16T03:19:16.516Z,1016.17
2018-12-16T03:20:16.505Z,1016.17
2018-12-16T03:21:16.492Z,1016.13
2018-12-16T03:22:16.482Z,1016.06
2018-12-16T03:23:16.471Z,1016.06
2018-12-16T03:24:16.464Z,1016.02
2018-12-16T03:25:16.447Z,1016.01
2018-12-16T03:26:16.436Z,1016.05
2018-12-16T03:27:16.428Z,1016.10
2018-12-16T03:28:16.416Z,1016.10
2018-12-16T03:29:16.404Z,1016.06
2018-12-16T03:30:16.394Z,1016.07
2018-12-16T03:31:16.382Z,1016.00
2018-12-16T03:32:16.376Z,1016.05
2018-12-16T03:33:16.369Z,1016.01
2018-12-16T03:34:16.350Z,1015.97
2018-12-16T03:35:16.336Z,1016.00
2018-12-16T03:36:16.329Z,1016.00
2018-12-16T03:37:16.314Z,1015.99
2018-12-16T03:38:16.309Z,1015.99
2018-12-16T03:39:16.294Z,1015.96
2018-12-16T03:40:16.293Z,1015.91
2018-12-16T03:41:16.279Z,1015.91
2018-12-16T03:42:16.267Z,1015.92
2018-12-16T03:43:16.250Z,1015.94
2018-12-16T03:44:16.239Z,1015.90
2018-12-16T03:45:16.226Z,1015.93
2018-12-16T03:46:16.215Z,1015.94
2018-12-16T03:47:16.207Z,1015.94
2018-12-16T03:48:16.201Z,1015.93
2018-12-16T03:49:16.182Z,1015.95
2018-12-16T03:50:16.172Z,1015.87
2018-12-16T03:51:16.165Z,1015.83
2018-12-16T03:52:16.149Z,1015.89
2018-12-16T03:53:19.836Z,1015.85
2018-12-16T03:54:16.133Z,1015.86
2018-12-16T03:55:16.117Z,1015.86
2018-12-16T03:56:16.109Z,1015.86
2018-12-16T03:57:16.095Z,1015.81
2018-12-16T03:58:16.084Z,1015.87
2018-12-16T03:59:16.071Z,1015.86
2018-12-16T04:00:16.062Z,1015.80
2018-12-16T04:01:16.073Z,1015.80
2018-12-16T04:02:16.037Z,1015.83
2018-12-16T04:03:16.027Z,1015.82
2018-12-16T04:04:16.014Z,1015.75
2018-12-16T04:05:16.011Z,1015.82
2018-12-16T04:06:15.992Z,1015.84
2018-12-16T04:07:15.981Z,1015.76
2018-12-16T04:08:15.970Z,1015.81
2018-12-16T04:09:15.970Z,1015.71
2018-12-16T04:10:15.946Z,1015.73
2018-12-16T04:11:15.935Z,1015.68
2018-12-16T04:12:15.927Z,1015.61
2018-12-16T04:13:15.933Z,1015.62
2018-12-16T04:14:15.904Z,1015.59
2018-12-16T04:15:15.891Z,1015.60
2018-12-16T04:16:15.878Z,1015.63
2018-12-16T04:17:15.881Z,1015.63
2018-12-16T04:18:15.857Z,1015.60
2018-12-16T04:19:15.848Z,1015.58
2018-12-16T04:20:15.834Z,1015.59
2018-12-16T04:21:15.826Z,1015.56
2018-12-16T04:22:15.814Z,1015.53
2018-12-16T04:23:15.805Z,1015.48
2018-12-16T04:24:15.789Z,1015.41
2018-12-16T04:25:15.780Z,1015.41
2018-12-16T04:26:15.770Z,1015.40
2018-12-16T04:27:15.756Z,1015.37
2018-12-16T04:28:15.748Z,1015.37
2018-12-16T04:29:15.731Z,1015.32
2018-12-16T04:30:15.720Z,1015.31
2018-12-16T04:31:15.727Z,1015.29
2018-12-16T04:32:15.699Z,1015.23
2018-12-16T04:33:15.685Z,1015.17
2018-12-16T04:34:15.734Z,1015.16
2018-12-16T04:35:15.665Z,1015.25
2018-12-16T04:36:15.654Z,1015.22
2018-12-16T04:37:15.641Z,1015.19
2018-12-16T04:38:15.634Z,1015.19
2018-12-16T04:39:15.620Z,1015.15
2018-12-16T04:40:15.609Z,1015.12
2018-12-16T04:41:15.601Z,1015.16
2018-12-16T04:42:15.584Z,1015.14
2018-12-16T04:43:15.575Z,1015.11
2018-12-16T04:44:15.566Z,1015.20
2018-12-16T04:45:15.557Z,1015.16
2018-12-16T04:46:15.541Z,1015.18
2018-12-16T04:47:15.528Z,1015.20
2018-12-16T04:48:15.520Z,1015.08
2018-12-16T04:49:15.508Z,1015.06
2018-12-16T04:50:15.508Z,1015.14
2018-12-16T04:51:15.484Z,1015.08
2018-12-16T04:52:15.472Z,1015.03
2018-12-16T04:53:15.460Z,1015.03
2018-12-16T04:54:15.448Z,1015.10
2018-12-16T04:55:15.441Z,1015.17
2018-12-16T04:56:15.431Z,1015.16
2018-12-16T04:57:15.415Z,1015.10
2018-12-16T04:58:15.408Z,1015.07
2018-12-16T04:59:15.397Z,1015.04
2018-12-16T05:00:15.382Z,1014.99
2018-12-16T05:01:15.367Z,1015.04
2018-12-16T05:02:15.357Z,1015.01
2018-12-16T05:03:15.345Z,1015.02
2018-12-16T05:04:15.337Z,1014.99
2018-12-16T05:05:15.323Z,1015.02
2018-12-16T05:06:15.311Z,1015.09
2018-12-16T05:07:15.306Z,1015.06
2018-12-16T05:08:15.289Z,1015.03
2018-12-16T05:09:15.276Z,1015.01
2018-12-16T05:10:15.275Z,1014.96
2018-12-16T05:11:15.254Z,1014.91
2018-12-16T05:12:15.243Z,1014.97
2018-12-16T05:13:15.233Z,1014.91
2018-12-16T05:14:15.220Z,1014.90
2018-12-16T05:15:15.213Z,1014.92
2018-12-16T05:16:15.199Z,1014.90
2018-12-16T05:17:15.187Z,1014.82
2018-12-16T05:18:15.174Z,1014.81
2018-12-16T05:19:15.164Z,1014.77
2018-12-16T05:20:15.153Z,1014.71
2018-12-16T05:21:15.143Z,1014.70
2018-12-16T05:22:15.137Z,1014.67
2018-12-16T05:23:15.119Z,1014.65
2018-12-16T05:24:15.107Z,1014.65
2018-12-16T05:25:15.098Z,1014.65
2018-12-16T05:26:15.097Z,1014.57
2018-12-16T05:27:15.072Z,1014.54
2018-12-16T05:28:15.063Z,1014.54
2018-12-16T05:29:15.051Z,1014.52
2018-12-16T05:30:15.040Z,1014.56
2018-12-16T05:31:15.028Z,1014.53
2018-12-16T05:32:15.017Z,1014.47
2018-12-16T05:33:15.005Z,1014.50
2018-12-16T05:34:14.994Z,1014.49
2018-12-16T05:35:14.983Z,1014.47
2018-12-16T05:36:14.973Z,1014.48
2018-12-16T05:37:14.963Z,1014.43
2018-12-16T05:38:14.954Z,1014.39
2018-12-16T05:39:14.941Z,1014.37
2018-12-16T05:40:14.927Z,1014.31
2018-12-16T05:41:14.923Z,1014.33
2018-12-16T05:42:14.904Z,1014.32
2018-12-16T05:43:14.898Z,1014.33
2018-12-16T05:44:14.886Z,1014.23
2018-12-16T05:45:14.874Z,1014.24
2018-12-16T05:46:14.858Z,1014.23
2018-12-16T05:47:14.848Z,1014.24
2018-12-16T05:48:14.836Z,1014.21
2018-12-16T05:49:14.824Z,1014.25
2018-12-16T05:50:14.812Z,1014.20
2018-12-16T05:51:14.803Z,1014.25
2018-12-16T05:52:14.789Z,1014.25
2018-12-16T05:53:14.781Z,1014.22
2018-12-16T05:54:14.771Z,1014.20
2018-12-16T05:55:14.762Z,1014.17
2018-12-16T05:56:14.746Z,1014.21
2018-12-16T05:57:14.735Z,1014.17
2018-12-16T05:58:14.724Z,1014.19
2018-12-16T05:59:14.709Z,1014.22
2018-12-16T06:00:14.698Z,1014.23
2018-12-16T06:01:14.692Z,1014.17
2018-12-16T06:02:14.676Z,1014.14
2018-12-16T06:03:14.664Z,1014.19
2018-12-16T06:04:14.659Z,1014.15
2018-12-16T06:05:14.645Z,1014.12
2018-12-16T06:06:14.631Z,1014.14
2018-12-16T06:07:14.619Z,1014.05
2018-12-16T06:08:14.609Z,1014.09
2018-12-16T06:09:14.598Z,1014.12
2018-12-16T06:10:14.588Z,1014.11
2018-12-16T06:11:14.575Z,1014.08
2018-12-16T06:12:14.565Z,1014.02
2018-12-16T06:13:14.551Z,1014.06
2018-12-16T06:14:14.544Z,1014.07
2018-12-16T06:15:14.538Z,1014.13
2018-12-16T06:16:14.521Z,1014.09
2018-12-16T06:17:14.508Z,1013.99
2018-12-16T06:18:14.495Z,1013.99
2018-12-16T06:19:14.483Z,1013.94
2018-12-16T06:20:14.471Z,1013.97
2018-12-16T06:21:14.460Z,1013.97
2018-12-16T06:22:14.449Z,1013.91
2018-12-16T06:23:14.439Z,1013.92
2018-12-16T06:24:14.427Z,1013.95
2018-12-16T06:25:14.418Z,1013.85
2018-12-16T06:26:14.404Z,1013.91
2018-12-16T06:27:14.392Z,1013.87
2018-12-16T06:28:14.382Z,1013.84
2018-12-16T06:29:14.370Z,1013.86
2018-12-16T06:30:14.361Z,1013.78
2018-12-16T06:31:14.352Z,1013.77
2018-12-16T06:32:14.337Z,1013.89
2018-12-16T06:33:14.333Z,1013.86
2018-12-16T06:34:14.316Z,1013.88
2018-12-16T06:35:14.301Z,1013.90
2018-12-16T06:36:14.289Z,1013.82
2018-12-16T06:37:14.280Z,1013.86
2018-12-16T06:38:14.273Z,1013.87
2018-12-16T06:39:14.260Z,1013.81
2018-12-16T06:40:14.255Z,1013.88
2018-12-16T06:41:14.261Z,1013.87
2018-12-16T06:42:14.229Z,1013.90
2018-12-16T06:43:14.219Z,1013.79
2018-12-16T06:44:14.204Z,1013.82
2018-12-16T06:45:14.192Z,1013.80
2018-12-16T06:46:14.176Z,1013.69
2018-12-16T06:47:14.167Z,1013.77
2018-12-16T06:48:14.156Z,1013.66
2018-12-16T06:49:14.141Z,1013.70
2018-12-16T06:50:14.130Z,1013.66
2018-12-16T06:51:14.123Z,1013.61
2018-12-16T06:52:14.111Z,1013.58
2018-12-16T06:53:14.102Z,1013.56
2018-12-16T06:54:14.085Z,1013.54
2018-12-16T06:55:14.076Z,1013.48
2018-12-16T06:56:14.067Z,1013.49
2018-12-16T06:57:14.052Z,1013.42
2018-12-16T06:58:14.041Z,1013.44
2018-12-16T06:59:14.029Z,1013.45
2018-12-16T07:00:14.019Z,1013.43
2018-12-16T07:01:14.006Z,1013.49
2018-12-16T07:02:13.995Z,1013.39
2018-12-16T07:03:13.986Z,1013.38
2018-12-16T07:04:13.974Z,1013.33
2018-12-16T07:05:13.961Z,1013.39
2018-12-16T07:06:13.955Z,1013.38
2018-12-16T07:07:13.946Z,1013.41
2018-12-16T07:08:13.933Z,1013.39
2018-12-16T07:09:13.914Z,1013.38
2018-12-16T07:10:13.909Z,1013.44
2018-12-16T07:11:13.899Z,1013.44
2018-12-16T07:12:13.882Z,1013.44
2018-12-16T07:13:13.888Z,1013.45
2018-12-16T07:14:13.858Z,1013.48
2018-12-16T07:15:13.870Z,1013.55
2018-12-16T07:16:13.872Z,1013.56
2018-12-16T07:17:13.828Z,1013.55
2018-12-16T07:18:13.817Z,1013.63
2018-12-16T07:19:13.803Z,1013.73
2018-12-16T07:20:13.790Z,1013.73
2018-12-16T07:21:13.779Z,1013.72
2018-12-16T07:22:13.793Z,1013.82
2018-12-16T07:23:13.760Z,1013.82
2018-12-16T07:24:13.746Z,1013.89
2018-12-16T07:25:13.733Z,1013.84
2018-12-16T07:26:13.722Z,1013.81
2018-12-16T07:27:13.712Z,1013.86
2018-12-16T07:28:13.703Z,1013.86
2018-12-16T07:29:13.726Z,1013.85
2018-12-16T07:30:13.757Z,1013.81
2018-12-16T07:31:13.664Z,1013.86
2018-12-16T07:32:13.656Z,1013.80
2018-12-16T07:33:13.645Z,1013.73
2018-12-16T07:34:13.650Z,1013.84
2018-12-16T07:35:13.641Z,1013.80
2018-12-16T07:36:13.609Z,1013.76
2018-12-16T07:37:18.902Z,1013.68
2018-12-16T07:38:13.628Z,1013.80
2018-12-16T07:39:13.573Z,1013.79
2018-12-16T07:40:13.581Z,1013.69
2018-12-16T07:41:13.552Z,1013.67
2018-12-16T07:42:13.576Z,1013.70
2018-12-16T07:43:13.561Z,1013.78
2018-12-16T07:44:13.519Z,1013.85
2018-12-16T07:45:13.508Z,1013.76
2018-12-16T07:46:13.499Z,1013.77
2018-12-16T07:47:13.498Z,1013.83
2018-12-16T07:48:13.496Z,1013.80
2018-12-16T07:49:13.473Z,1013.73
2018-12-16T07:50:13.456Z,1013.78
2018-12-16T07:51:13.440Z,1013.74
2018-12-16T07:52:13.433Z,1013.75
2018-12-16T07:53:13.421Z,1013.79
2018-12-16T07:54:16.129Z,1013.67
2018-12-16T07:55:13.398Z,1013.72
2018-12-16T07:56:13.402Z,1013.72
2018-12-16T07:57:13.381Z,1013.75
2018-12-16T07:58:13.360Z,1013.67
2018-12-16T07:59:13.348Z,1013.60
2018-12-16T08:00:13.337Z,1013.53
2018-12-16T08:01:13.341Z,1013.56
2018-12-16T08:02:13.360Z,1013.59
2018-12-16T08:03:13.344Z,1013.56
2018-12-16T08:04:13.305Z,1013.55
2018-12-16T08:05:13.292Z,1013.52
2018-12-16T08:06:13.303Z,1013.49
2018-12-16T08:07:13.298Z,1013.48
2018-12-16T08:08:13.301Z,1013.50
2018-12-16T08:09:13.240Z,1013.45
2018-12-16T08:10:13.226Z,1013.45
2018-12-16T08:11:13.211Z,1013.40
2018-12-16T08:12:13.203Z,1013.42
2018-12-16T08:13:13.189Z,1013.43
2018-12-16T08:14:13.179Z,1013.48
2018-12-16T08:15:13.173Z,1013.56
2018-12-16T08:16:13.159Z,1013.51
2018-12-16T08:17:13.152Z,1013.47
2018-12-16T08:18:13.136Z,1013.45
2018-12-16T08:19:13.122Z,1013.47
2018-12-16T08:20:13.118Z,1013.37
2018-12-16T08:21:13.098Z,1013.37
2018-12-16T08:22:13.089Z,1013.40
2018-12-16T08:23:13.075Z,1013.39
2018-12-16T08:24:13.066Z,1013.40
2018-12-16T08:25:13.056Z,1013.38
2018-12-16T08:26:13.042Z,1013.38
2018-12-16T08:27:13.030Z,1013.39
2018-12-16T08:28:13.021Z,1013.32
2018-12-16T08:29:13.009Z,1013.44
2018-12-16T08:30:12.997Z,1013.40
2018-12-16T08:31:12.987Z,1013.28
2018-12-16T08:32:12.975Z,1013.33
2018-12-16T08:33:12.963Z,1013.37
2018-12-16T08:34:12.953Z,1013.32
2018-12-16T08:35:12.944Z,1013.33
2018-12-16T08:36:12.935Z,1013.30
2018-12-16T08:37:12.921Z,1013.30
2018-12-16T08:38:12.908Z,1013.34
2018-12-16T08:39:12.900Z,1013.32
2018-12-16T08:40:12.885Z,1013.38
2018-12-16T08:41:12.874Z,1013.44
2018-12-16T08:42:12.866Z,1013.41
2018-12-16T08:43:12.858Z,1013.40
2018-12-16T08:44:12.837Z,1013.39
2018-12-16T08:45:12.833Z,1013.39
2018-12-16T08:46:12.817Z,1013.40
2018-12-16T08:47:12.804Z,1013.40
2018-12-16T08:48:12.793Z,1013.34
2018-12-16T08:49:12.781Z,1013.42
2018-12-16T08:50:12.778Z,1013.35
2018-12-16T08:51:12.766Z,1013.40
2018-12-16T08:52:12.748Z,1013.47
2018-12-16T08:53:12.736Z,1013.49
2018-12-16T08:54:12.727Z,1013.40
2018-12-16T08:55:12.715Z,1013.46
2018-12-16T08:56:12.704Z,1013.45
2018-12-16T08:57:12.691Z,1013.39
2018-12-16T08:58:12.680Z,1013.41
2018-12-16T08:59:12.673Z,1013.41
2018-12-16T09:00:12.662Z,1013.38
2018-12-16T09:01:12.650Z,1013.31
2018-12-16T09:02:12.636Z,1013.33
2018-12-16T09:03:12.624Z,1013.44
2018-12-16T09:04:12.614Z,1013.32
2018-12-16T09:05:12.602Z,1013.37
2018-12-16T09:06:12.590Z,1013.34
2018-12-16T09:07:12.586Z,1013.39
2018-12-16T09:08:12.569Z,1013.27
2018-12-16T09:09:12.558Z,1013.30
2018-12-16T09:10:12.621Z,1013.28
2018-12-16T09:11:12.542Z,1013.19
2018-12-16T09:12:12.527Z,1013.30
2018-12-16T09:13:12.517Z,1013.26
2018-12-16T09:14:12.501Z,1013.18
2018-12-16T09:15:12.489Z,1013.23
2018-12-16T09:16:12.482Z,1013.19
2018-12-16T09:17:12.467Z,1013.13
2018-12-16T09:18:12.457Z,1013.16
2018-12-16T09:19:12.445Z,1013.13
2018-12-16T09:20:12.434Z,1013.18
2018-12-16T09:21:12.422Z,1013.09
2018-12-16T09:22:12.410Z,1013.11
2018-12-16T09:23:12.401Z,1013.04
2018-12-16T09:24:12.392Z,1013.02
2018-12-16T09:25:12.380Z,1013.05
2018-12-16T09:26:12.371Z,1013.06
2018-12-16T09:27:12.356Z,1013.05
2018-12-16T09:28:12.344Z,1013.02
2018-12-16T09:29:12.331Z,1013.03
2018-12-16T09:30:12.320Z,1013.02
2018-12-16T09:31:12.307Z,1013.01
2018-12-16T09:32:12.298Z,1012.99
2018-12-16T09:33:12.287Z,1013.05
2018-12-16T09:34:12.279Z,1012.98
2018-12-16T09:35:12.271Z,1012.91
2018-12-16T09:36:12.260Z,1012.99
2018-12-16T09:37:12.243Z,1012.97
2018-12-16T09:38:12.233Z,1012.93
2018-12-16T09:39:12.217Z,1012.90
2018-12-16T09:40:12.285Z,1012.93
2018-12-16T09:41:12.202Z,1012.86
2018-12-16T09:42:12.187Z,1012.81
2018-12-16T09:43:12.174Z,1012.84
2018-12-16T09:44:12.162Z,1012.95
2018-12-16T09:45:12.155Z,1012.79
2018-12-16T09:46:12.139Z,1012.85
2018-12-16T09:47:12.127Z,1012.83
2018-12-16T09:48:12.123Z,1012.78
2018-12-16T09:49:12.107Z,1012.91
2018-12-16T09:50:12.094Z,1012.69
2018-12-16T09:51:12.082Z,1012.77
2018-12-16T09:52:12.071Z,1012.66
2018-12-16T09:53:12.059Z,1012.59
2018-12-16T09:54:12.098Z,1012.65
2018-12-16T09:55:12.038Z,1012.70
2018-12-16T09:56:12.025Z,1012.59
2018-12-16T09:57:12.016Z,1012.71
2018-12-16T09:58:12.011Z,1012.83
2018-12-16T09:59:11.991Z,1012.51
2018-12-16T10:00:11.982Z,1012.52
2018-12-16T10:01:11.971Z,1012.54
2018-12-16T10:02:11.958Z,1012.66
2018-12-16T10:03:11.947Z,1012.42
2018-12-16T10:04:11.937Z,1012.63
2018-12-16T10:05:11.922Z,1012.47
2018-12-16T10:06:11.914Z,1012.42
2018-12-16T10:07:11.910Z,1012.39
2018-12-16T10:08:11.893Z,1012.38
2018-12-16T10:09:11.917Z,1012.47
2018-12-16T10:10:11.875Z,1012.41
2018-12-16T10:11:11.861Z,1012.36
2018-12-16T10:12:11.846Z,1012.40
2018-12-16T10:13:11.833Z,1012.41
2018-12-16T10:14:11.829Z,1012.37
2018-12-16T10:15:11.817Z,1012.47
2018-12-16T10:16:11.807Z,1012.57
2018-12-16T10:17:11.796Z,1012.33
2018-12-16T10:18:11.786Z,1012.37
2018-12-16T10:19:11.773Z,1012.43
2018-12-16T10:20:11.755Z,1012.38
2018-12-16T10:21:11.747Z,1012.44
2018-12-16T10:22:11.734Z,1012.48
2018-12-16T10:23:11.721Z,1012.41
2018-12-16T10:24:11.709Z,1012.46
2018-12-16T10:25:11.714Z,1012.30
2018-12-16T10:26:11.688Z,1012.30
2018-12-16T10:27:11.675Z,1012.31
2018-12-16T10:28:11.666Z,1012.37
2018-12-16T10:29:11.659Z,1012.33
2018-12-16T10:30:11.648Z,1012.33
2018-12-16T10:31:11.631Z,1012.29
2018-12-16T10:32:11.620Z,1012.26
2018-12-16T10:33:11.615Z,1012.27
2018-12-16T10:34:11.600Z,1012.20
2018-12-16T10:35:11.588Z,1012.29
2018-12-16T10:36:11.577Z,1012.30
2018-12-16T10:37:11.565Z,1012.26
2018-12-16T10:38:11.553Z,1012.23
2018-12-16T10:39:11.543Z,1012.18
2018-12-16T10:40:11.539Z,1012.15
2018-12-16T10:41:11.517Z,1012.24
2018-12-16T10:42:11.508Z,1012.09
2018-12-16T10:43:11.496Z,1012.21
2018-12-16T10:44:11.492Z,1012.22
2018-12-16T10:45:11.476Z,1012.22
2018-12-16T10:46:11.463Z,1012.11
2018-12-16T10:47:11.455Z,1012.10
2018-12-16T10:48:11.439Z,1012.18
2018-12-16T10:49:11.431Z,1012.16
2018-12-16T10:50:11.417Z,1012.07
2018-12-16T10:51:11.405Z,1012.05
2018-12-16T10:52:11.395Z,1011.99
2018-12-16T10:53:11.385Z,1012.02
2018-12-16T10:54:11.371Z,1011.97
2018-12-16T10:55:11.364Z,1012.01
2018-12-16T10:56:11.355Z,1012.04
2018-12-16T10:57:11.343Z,1012.02
2018-12-16T10:58:11.328Z,1012.01
2018-12-16T10:59:11.322Z,1012.03
2018-12-16T11:00:11.348Z,1012.07
2018-12-16T11:01:11.295Z,1011.84
2018-12-16T11:02:11.281Z,1011.95
2018-12-16T11:03:11.274Z,1011.89
2018-12-16T11:04:11.261Z,1011.91
2018-12-16T11:05:11.248Z,1011.82
2018-12-16T11:06:11.239Z,1011.89
2018-12-16T11:07:11.224Z,1011.79
2018-12-16T11:08:11.213Z,1011.80
2018-12-16T11:09:11.202Z,1011.79
2018-12-16T11:10:11.190Z,1011.62
2018-12-16T11:11:11.179Z,1011.70
2018-12-16T11:12:11.167Z,1011.66
2018-12-16T11:13:11.157Z,1011.66
2018-12-16T11:14:11.146Z,1011.72
2018-12-16T11:15:11.136Z,1011.69
2018-12-16T11:16:11.123Z,1011.63
2018-12-16T11:17:11.112Z,1011.63
2018-12-16T11:18:11.107Z,1011.58
2018-12-16T11:19:11.089Z,1011.59
2018-12-16T11:20:11.077Z,1011.64
2018-12-16T11:21:11.066Z,1011.64
2018-12-16T11:22:11.059Z,1011.69
2018-12-16T11:23:11.045Z,1011.59
2018-12-16T11:24:11.033Z,1011.57
2018-12-16T11:25:11.020Z,1011.61
2018-12-16T11:26:11.014Z,1011.71
2018-12-16T11:27:11.011Z,1011.58
2018-12-16T11:28:10.989Z,1011.55
2018-12-16T11:29:10.984Z,1011.59
2018-12-16T11:30:10.964Z,1011.60
2018-12-16T11:31:10.954Z,1011.53
2018-12-16T11:32:10.942Z,1011.57
2018-12-16T11:33:10.938Z,1011.51
2018-12-16T11:34:10.919Z,1011.49
2018-12-16T11:35:10.910Z,1011.61
2018-12-16T11:36:10.903Z,1011.56
2018-12-16T11:37:10.895Z,1011.49
2018-12-16T11:38:10.879Z,1011.50
2018-12-16T11:39:10.863Z,1011.55
2018-12-16T11:40:10.853Z,1011.48
2018-12-16T11:41:10.841Z,1011.49
2018-12-16T11:42:10.830Z,1011.39
2018-12-16T11:43:10.819Z,1011.44
2018-12-16T11:44:10.811Z,1011.43
2018-12-16T11:45:10.797Z,1011.29
2018-12-16T11:46:10.784Z,1011.36
2018-12-16T11:47:10.772Z,1011.33
2018-12-16T11:48:10.767Z,1011.40
2018-12-16T11:49:10.752Z,1011.33
2018-12-16T11:50:10.742Z,1011.39
2018-12-16T11:51:10.734Z,1011.43
2018-12-16T11:52:10.715Z,1011.38
2018-12-16T11:53:10.708Z,1011.33
2018-12-16T11:54:10.700Z,1011.36
2018-12-16T11:55:12.940Z,1011.25
2018-12-16T11:56:10.678Z,1011.27
2018-12-16T11:57:10.660Z,1011.28
2018-12-16T11:58:10.648Z,1011.19
2018-12-16T11:59:10.641Z,1011.25
2018-12-16T12:00:10.625Z,1011.18
2018-12-16T12:01:10.615Z,1011.21
2018-12-16T12:02:10.602Z,1011.17
2018-12-16T12:03:10.591Z,1011.22
2018-12-16T12:04:10.584Z,1011.18
2018-12-16T12:05:10.569Z,1011.14